map of JSI home
JSI - Airport
Location
City:  Skiathos, Thessalía (Thessaly), Greece
ICAO:LGSK
IATA:JSI

Details
Type:Airport (Aerodrome, Airfield)
Latitude:39°10'38"N (39.177100)
Longitude:23°30'13"E (23.503675)
Datum:WGS 1984
Elevation:54 ft (16 m)
Variation:4.55°E (WMM2015 magnetic declination)
0.10° annual change
Runways:1
Longest:5341 × 98 ft (1628 × 30 m), paved

Time
Time Zone:UTC+2 (DST+3)
Local Time:

Weather
METAR:LGSK 131750Z 00000KT CAVOK 16/11 Q1017

Related Locations
Nearby:
Farthest:CHT: 11360 mi / 18281 km
Waitangi [Tuuta], CIT, NZ

Find:

   beyond  
but within

Other Information
Maps:
NOTAMs:
Links:
Sources:

  
flag of Greece   

Sectional Chart

Flight Planning
at skyvector.com

Satellite Image

Google Maps Satellite view

 

Copyright © 2004-2017 Karl L. Swartz. All rights reserved.
The Great Circle Mapper name and logo are trademarks of the Great Circle Mapper.
All other trademarks mentioned herein belong to their respective owners.
Please see credits for attibutions and further copyright information.

  Follow gcmap on Facebook Follow gcmap on Twitter Follow gcmap on Google+ GCmap on LinkedIn

hCard Microformat

Geo Microformat